Date,TemperatureHighF,TemperatureAvgF,TemperatureLowF,DewpointHighF,DewpointAvgF,DewpointLowF,HumidityHigh,HumidityAvg,HumidityLow,PressureMaxIn,PressureMinIn,WindSpeedMaxMPH,WindSpeedAvgMPH,GustSpeedMaxMPH,PrecipitationSumIn
2013-1-1,43,31,20,-100,-100,-100,0,0,100,0.00,40.00,5,2,6,0.00
2013-1-2,43,28,18,-100,-100,-100,0,0,100,0.00,40.00,3,2,4,0.00
2013-1-3,29,26,20,-100,-100,-100,0,0,100,0.00,40.00,6,3,6,0.00
2013-1-4,36,28,20,-100,-100,-100,0,0,100,0.00,40.00,5,1,5,0.00
2013-1-5,29,21,14,-100,-100,-100,0,0,100,0.00,40.00,5,1,5,0.00
2013-1-6,40,25,12,-100,-100,-100,0,0,100,0.00,40.00,4,1,6,0.00
2013-1-7,50,40,29,-100,-100,-100,0,0,100,0.00,40.00,6,4,8,0.00
2013-1-8,54,42,32,-100,-100,-100,0,0,100,0.00,40.00,7,2,12,0.00
2013-1-9,57,44,30,-100,-100,-100,0,0,100,0.00,40.00,10,2,12,0.00
2013-1-10,55,42,29,-100,-100,-100,0,0,100,0.00,40.00,6,2,8,0.00
2013-1-11,51,44,32,-100,-100,-100,0,0,100,0.00,40.00,11,6,13,0.00
2013-1-12,37,30,21,-100,-100,-100,0,0,100,0.00,40.00,8,5,9,0.00
2013-1-13,36,25,11,-100,-100,-100,0,0,100,0.00,40.00,4,1,5,0.00
2013-1-14,38,27,13,-100,-100,-100,0,0,100,0.00,40.00,8,3,9,0.00
2013-1-15,34,24,16,-100,-100,-100,0,0,100,0.00,40.00,4,2,5,0.00
2013-1-16,46,28,14,-100,-100,-100,0,0,100,0.00,40.00,4,1,4,0.00
2013-1-17,52,35,18,-100,-100,-100,0,0,100,0.00,40.00,6,2,7,0.00
2013-1-18,54,33,21,-100,-100,-100,0,0,100,0.00,40.00,4,2,5,0.00
2013-1-19,61,39,21,-100,-100,-100,0,0,100,0.00,40.00,4,2,5,0.00
2013-1-20,62,39,20,-100,-100,-100,0,0,100,0.00,40.00,5,1,6,0.00
2013-1-21,62,41,25,-100,-100,-100,0,0,100,0.00,40.00,5,2,5,0.00
2013-1-22,65,46,30,-100,-100,-100,0,0,100,0.00,40.00,3,1,5,0.00
2013-1-23,68,42,25,-100,-100,-100,0,0,100,0.00,40.00,3,1,5,0.00
2013-1-24,69,48,30,-100,-100,-100,0,0,100,0.00,40.00,4,1,5,0.00
2013-1-25,62,53,42,-100,-100,-100,0,0,100,0.00,40.00,3,1,7,0.00
2013-1-26,63,53,47,-100,-100,-100,0,0,100,0.00,40.00,4,1,5,0.00
2013-1-27,61,52,39,-100,-100,-100,0,0,100,0.00,40.00,9,3,9,0.00
2013-1-28,60,45,36,-100,-100,-100,0,0,100,0.00,40.00,14,4,17,0.00
2013-1-29,40,35,31,-100,-100,-100,0,0,100,0.00,40.00,16,8,19,0.00
2013-1-30,46,35,21,-100,-100,-100,0,0,100,0.00,40.00,5,2,8,0.00
2013-1-31,55,45,20,-100,-100,-100,0,0,100,0.00,40.00,4,2,4,0.00
2013-2-1,62,40,23,-100,-100,-100,0,0,100,0.00,40.00,4,1,5,0.00
2013-2-2,61,42,25,-100,-100,-100,0,0,100,0.00,40.00,6,2,6,0.00
2013-2-3,59,46,29,-100,-100,-100,0,0,100,0.00,40.00,8,2,8,0.00
2013-2-4,61,50,39,-100,-100,-100,0,0,100,0.00,40.00,5,-44,8,0.00
2013-2-5,63,44,29,-100,-100,-100,0,0,100,0.00,40.00,3,1,4,0.00
2013-2-6,62,44,32,-100,-100,-100,0,0,100,0.00,40.00,7,2,9,0.00
2013-2-7,63,43,33,-100,-100,-100,0,0,100,0.00,40.00,3,1,4,0.00
2013-2-8,65,50,34,-100,-100,-100,0,0,100,0.00,40.00,7,3,9,0.00
2013-2-9,55,44,32,-100,-100,-100,0,0,100,0.00,40.00,10,4,17,0.00
2013-2-10,51,39,29,-100,-100,-100,0,0,100,0.00,40.00,7,2,10,0.00
2013-2-11,55,37,18,-100,-100,-100,0,0,100,0.00,40.00,8,-27,12,0.00
2013-2-12,49,37,27,-100,-100,-100,0,0,100,0.00,40.00,7,-72,8,0.00
2013-2-13,51,33,18,-100,-100,-100,0,0,100,0.00,40.00,4,1,6,0.00
2013-2-14,58,39,22,-100,-100,-100,0,0,100,0.00,40.00,4,-27,7,0.00
2013-2-15,54,42,31,-100,-100,-100,0,0,100,0.00,40.00,4,2,7,0.00
2013-2-16,59,39,19,-100,-100,-100,0,0,100,0.00,40.00,3,1,5,0.00
2013-2-17,65,48,21,-100,-100,-100,0,0,100,0.00,40.00,10,4,13,0.00
2013-2-18,61,50,38,-100,-100,-100,0,0,100,0.00,40.00,8,3,11,0.00
2013-2-19,54,41,26,-100,-100,-100,0,0,100,0.00,40.00,6,2,8,0.00
2013-2-20,57,41,30,-100,-100,-100,0,0,100,0.00,40.00,18,6,18,0.00
2013-2-21,46,35,26,-100,-100,-100,0,0,100,0.00,40.00,10,5,13,0.00
2013-2-22,52,38,25,-100,-100,-100,0,0,100,0.00,40.00,10,3,10,0.00
2013-2-23,58,42,21,-100,-100,-100,0,0,100,0.00,40.00,7,2,8,0.00
2013-2-24,56,39,29,-100,-100,-100,0,0,100,0.00,40.00,15,6,19,0.00
2013-2-25,51,35,22,-100,-100,-100,0,0,100,0.00,40.00,5,3,7,0.00
2013-2-26,62,39,18,-100,-100,-100,0,0,100,0.00,40.00,9,3,15,0.00
2013-2-27,50,37,25,-100,-100,-100,0,0,100,0.00,40.00,6,2,8,0.00
2013-2-28,56,36,18,-100,-100,-100,0,0,100,0.00,40.00,2,1,7,0.00
2013-3-1,62,44,25,-100,-100,-100,0,0,100,0.00,40.00,7,1,8,0.00
2013-3-2,69,49,29,-100,-100,-100,0,0,100,0.00,40.00,3,1,4,0.00
2013-3-3,76,49,27,-100,-100,-100,0,0,100,0.00,40.00,8,-53,11,0.00
2013-3-4,73,59,39,-100,-100,-100,0,0,100,0.00,40.00,16,5,19,0.00
2013-3-5,61,47,32,-100,-100,-100,0,0,100,0.00,40.00,8,2,8,0.00
2013-3-6,72,55,43,-100,-100,-100,0,0,100,0.00,40.00,5,2,6,0.00
2013-3-7,72,52,36,-100,-100,-100,0,0,100,0.00,40.00,6,2,9,0.00
2013-3-8,62,54,47,-100,-100,-100,0,0,100,0.00,40.00,14,4,16,0.00
2013-3-9,51,43,36,-100,-100,-100,0,0,100,0.00,40.00,12,6,15,0.00
2013-3-10,54,42,28,-100,-100,-100,0,0,100,0.00,40.00,4,1,7,0.00
2013-3-11,64,42,25,-100,-100,-100,0,0,100,0.00,40.00,3,1,6,0.00
2013-3-12,69,53,35,-100,-100,-100,0,0,100,0.00,40.00,5,2,6,0.00
2013-3-13,70,49,31,-100,-100,-100,0,0,100,0.00,40.00,5,1,6,0.00
2013-3-14,77,52,36,-100,-100,-100,0,0,100,0.00,40.00,5,1,5,0.00
2013-3-15,81,59,40,-100,-100,-100,0,0,100,0.00,40.00,5,2,6,0.00
2013-3-16,79,64,51,-100,-100,-100,0,0,100,0.00,40.00,11,3,12,0.00
2013-3-17,73,58,43,-100,-100,-100,0,0,100,0.00,40.00,14,4,18,0.00
2013-3-18,73,57,42,-100,-100,-100,0,0,100,0.00,40.00,10,3,12,0.00
2013-3-19,72,59,43,-100,-100,-100,0,0,100,0.00,40.00,9,3,11,0.00
2013-3-20,69,57,44,-100,-100,-100,0,0,100,0.00,40.00,6,3,8,0.00
2013-3-21,76,61,48,-100,-100,-100,0,0,100,0.00,40.00,9,4,13,0.00
2013-3-22,73,60,49,-100,-100,-100,0,0,100,0.00,40.00,11,3,14,0.00
2013-3-23,66,55,47,-100,-100,-100,0,0,100,0.00,40.00,12,4,18,0.00
2013-3-24,62,49,29,-100,-100,-100,0,0,100,0.00,40.00,7,2,7,0.00
2013-3-25,59,47,34,-100,-100,-100,0,0,100,0.00,40.00,7,3,9,0.00
2013-3-26,66,48,29,-100,-100,-100,0,0,100,0.00,40.00,6,2,8,0.00
2013-3-27,75,50,32,-100,-100,-100,0,0,100,0.00,40.00,5,1,8,0.00
2013-3-28,76,62,47,-100,-100,-100,0,0,100,0.00,40.00,4,2,6,0.00
2013-3-29,79,66,54,-100,-100,-100,0,0,100,0.00,40.00,6,2,9,0.00
2013-3-30,79,62,44,-100,-100,-100,0,0,100,0.00,40.00,6,2,10,0.00
2013-3-31,77,60,44,-100,-100,-100,0,0,100,0.00,40.00,5,1,8,0.00
2013-4-1,79,61,44,-100,-100,-100,0,0,100,0.00,40.00,7,2,9,0.00
2013-4-2,75,63,47,-100,-100,-100,0,0,100,0.00,40.00,10,4,12,0.00
2013-4-3,70,55,40,-100,-100,-100,0,0,100,0.00,40.00,6,2,8,0.00
2013-4-4,76,57,35,-100,-100,-100,0,0,100,0.00,40.00,5,2,6,0.00
2013-4-5,80,60,46,-100,-100,-100,0,0,100,0.00,40.00,11,3,12,0.00
2013-4-6,78,64,49,-100,-100,-100,0,0,100,0.00,40.00,8,3,9,0.00
2013-4-7,79,66,55,-100,-100,-100,0,0,100,0.00,40.00,7,-41,11,0.00
2013-4-8,80,67,54,-100,-100,-100,0,0,100,0.00,40.00,13,6,17,0.00
2013-4-9,64,54,45,-100,-100,-100,0,0,100,0.00,40.00,13,6,16,0.00
2013-4-10,60,50,36,-100,-100,-100,0,0,100,0.00,40.00,10,4,13,0.00
2013-4-11,74,50,36,-100,-100,-100,0,0,100,0.00,40.00,5,2,7,0.00
2013-4-12,73,60,47,-100,-100,-100,0,0,100,0.00,40.00,4,2,5,0.00
2013-4-13,77,67,50,-100,-100,-100,0,0,100,0.00,40.00,9,3,11,0.00
2013-4-14,77,69,57,-100,-100,-100,0,0,100,0.00,40.00,11,6,17,0.00
2013-4-15,79,63,51,-100,-100,-100,0,0,100,0.00,40.00,8,4,13,0.00
2013-4-16,80,65,53,-100,-100,-100,0,0,100,0.00,40.00,10,4,13,0.00
2013-4-17,73,62,50,-100,-100,-100,0,0,100,0.00,40.00,13,7,18,0.00
2013-4-18,62,48,36,-100,-100,-100,0,0,100,0.00,40.00,7,2,9,0.00
2013-4-19,64,47,32,-100,-100,-100,0,0,100,0.00,40.00,4,1,4,0.00
2013-4-20,76,57,32,-100,-100,-100,0,0,100,0.00,40.00,11,4,13,0.00
2013-4-21,80,65,43,-100,-100,-100,0,0,100,0.00,40.00,8,2,11,0.00
2013-4-22,84,71,54,-100,-100,-100,0,0,100,0.00,40.00,9,4,12,0.00
2013-4-23,82,67,52,-100,-100,-100,0,0,100,0.00,40.00,10,5,13,0.00
2013-4-24,72,56,41,-100,-100,-100,0,0,100,0.00,40.00,7,4,8,0.00
2013-4-25,82,66,53,-100,-100,-100,0,0,100,0.00,40.00,9,4,14,0.00
2013-4-26,78,62,45,-100,-100,-100,0,0,100,0.00,40.00,7,2,7,0.00
2013-4-27,80,62,47,-100,-100,-100,0,0,100,0.00,40.00,6,2,6,0.00
2013-4-28,82,64,44,-100,-100,-100,0,0,100,0.00,40.00,7,2,7,0.00
2013-4-29,85,67,47,-100,-100,-100,0,0,100,0.00,40.00,6,2,9,0.00
2013-4-30,87,73,58,-100,-100,-100,0,0,100,0.00,40.00,9,4,10,0.00
2013-5-1,83,67,57,-100,-100,-100,0,0,100,0.00,40.00,8,2,12,0.00
2013-5-2,63,54,45,-100,-100,-100,0,0,100,0.00,40.00,8,5,10,0.00
2013-5-3,67,49,36,-100,-100,-100,0,0,100,0.00,40.00,7,3,7,0.00
2013-5-4,80,56,37,-100,-100,-100,0,0,100,0.00,40.00,7,2,14,0.00
2013-5-5,80,70,52,-100,-100,-100,0,0,100,0.00,40.00,7,3,9,0.00
2013-5-6,77,69,61,-100,-100,-100,0,0,100,0.00,40.00,8,3,10,0.00
2013-5-7,76,66,51,-100,-100,-100,0,0,100,0.00,40.00,7,4,9,0.00
2013-5-8,76,65,53,-100,-100,-100,0,0,100,0.00,40.00,8,4,11,0.00
2013-5-9,77,60,48,-100,-100,-100,0,0,100,0.00,40.00,8,1,8,0.00
2013-5-10,71,60,51,-100,-100,-100,0,0,100,0.00,40.00,10,4,13,0.00
2013-5-11,73,58,44,-100,-100,-100,0,0,100,0.00,40.00,6,2,9,0.00
2013-5-12,76,63,45,-100,-100,-100,0,0,100,0.00,40.00,5,2,9,0.00
2013-5-13,79,62,43,-100,-100,-100,0,0,100,0.00,40.00,7,2,9,0.00
2013-5-14,79,65,47,-100,-100,-100,0,0,100,0.00,40.00,5,2,7,0.00
2013-5-15,88,74,58,-100,-100,-100,0,0,100,0.00,40.00,13,5,13,0.00
2013-5-16,88,67,57,-100,-100,-100,0,0,100,0.00,40.00,9,4,13,0.00
2013-5-17,89,73,60,-100,-100,-100,0,0,100,0.00,40.00,7,3,9,0.00
2013-5-18,85,74,58,-100,-100,-100,0,0,100,0.00,40.00,10,4,12,0.00
2013-5-19,83,73,54,-100,-100,-100,0,0,100,0.00,40.00,11,5,11,0.00
2013-5-20,84,72,57,-100,-100,-100,0,0,100,0.00,40.00,10,4,13,0.00
2013-5-21,83,69,51,-100,-100,-100,0,0,100,0.00,40.00,5,2,7,0.00
2013-5-22,87,69,51,-100,-100,-100,0,0,100,0.00,40.00,8,2,9,0.00
2013-5-23,92,77,60,-100,-100,-100,0,0,100,0.00,40.00,7,2,8,0.00
2013-5-24,89,77,60,-100,-100,-100,0,0,100,0.00,40.00,6,3,8,0.00
2013-5-25,91,78,61,-100,-100,-100,0,0,100,0.00,40.00,7,3,12,0.00
2013-5-26,91,77,56,-100,-100,-100,0,0,100,0.00,40.00,9,3,13,0.00
2013-5-27,89,76,57,-100,-100,-100,0,0,100,0.00,40.00,8,2,8,0.00
2013-5-28,88,77,62,-100,-100,-100,0,0,100,0.00,40.00,11,5,12,0.00
2013-5-29,84,73,58,-100,-100,-100,0,0,100,0.00,40.00,9,-50,13,0.00
2013-5-30,87,77,59,-100,-100,-100,0,0,100,0.00,40.00,8,4,11,0.00
2013-5-31,91,77,61,-100,-100,-100,0,0,100,0.00,40.00,8,4,12,0.00
2013-6-1,92,83,65,-100,-100,-100,0,0,100,0.00,40.00,5,2,7,0.00
2013-6-2,93,76,65,-100,-100,-100,0,0,100,0.00,40.00,8,4,10,0.00
2013-6-3,95,77,58,-100,-100,-100,0,0,100,0.00,40.00,6,3,11,0.00
2013-6-4,93,82,62,-100,-100,-100,0,0,100,0.00,40.00,9,3,12,0.00
2013-6-5,92,81,66,-100,-100,-100,0,0,100,0.00,40.00,6,3,10,0.00
2013-6-6,91,76,54,-100,-100,-100,0,0,100,0.00,40.00,8,2,10,0.00
2013-6-7,88,73,65,-100,-100,-100,0,0,100,0.00,40.00,6,3,8,0.00
2013-6-8,98,80,58,-100,-100,-100,0,0,100,0.00,40.00,11,3,13,0.00
2013-6-9,97,85,73,-100,-100,-100,0,0,100,0.00,40.00,10,3,10,0.00
2013-6-10,98,83,65,-100,-100,-100,0,0,100,0.00,40.00,4,2,6,0.00
2013-6-11,101,86,67,-100,-100,-100,0,0,100,0.00,40.00,5,2,6,0.00
2013-6-12,101,83,65,-100,-100,-100,0,0,100,0.00,40.00,7,2,8,0.00
2013-6-13,97,83,67,-100,-100,-100,0,0,100,0.00,40.00,6,4,8,0.00
2013-6-14,92,78,68,-100,-100,-100,0,0,100,0.00,40.00,7,3,7,0.00
2013-6-15,93,80,65,-100,-100,-100,0,0,100,0.00,40.00,7,2,9,0.00
2013-6-16,98,83,72,-100,-100,-100,0,0,100,0.00,40.00,7,2,11,0.00
2013-6-17,96,83,69,-100,-100,-100,0,0,100,0.00,40.00,7,2,10,0.00
2013-6-18,96,80,63,-100,-100,-100,0,0,100,0.00,40.00,7,3,9,0.00
2013-6-19,98,82,61,-100,-100,-100,0,0,100,0.00,40.00,8,2,11,0.00
2013-6-20,96,85,73,-100,-100,-100,0,0,100,0.00,40.00,8,2,9,0.00
2013-6-22,97,87,77,-100,-100,-100,0,0,100,0.00,40.00,8,3,10,0.00
2013-6-23,94,80,62,-100,-100,-100,0,0,100,0.00,40.00,9,3,12,0.00
2013-6-24,94,82,64,-100,-100,-100,0,0,100,0.00,40.00,8,2,9,0.00
2013-6-25,94,80,67,-100,-100,-100,0,0,100,0.00,40.00,7,3,9,0.00
2013-6-26,98,83,69,-100,-100,-100,0,0,100,0.00,40.00,6,3,8,0.00
2013-6-27,102,84,69,-100,-100,-100,0,0,100,0.00,40.00,5,2,7,0.00
2013-6-28,95,84,73,-100,-100,-100,0,0,100,0.00,40.00,7,3,9,0.00
2013-6-29,98,85,69,-100,-100,-100,0,0,100,0.00,40.00,8,2,10,0.00
2013-6-30,94,86,74,-100,-100,-100,0,0,100,0.00,40.00,8,3,11,0.00
2013-7-1,81,71,62,-100,-100,-100,0,0,100,0.00,40.00,8,4,12,0.00
2013-7-2,83,73,59,-100,-100,-100,0,0,100,0.00,40.00,4,3,6,0.00
2013-7-3,87,78,62,-100,-100,-100,0,0,100,0.00,40.00,5,2,7,0.00
2013-7-4,93,78,66,-100,-100,-100,0,0,100,0.00,40.00,5,2,7,0.00
2013-7-5,95,80,62,-100,-100,-100,0,0,100,0.00,40.00,6,2,7,0.00
2013-7-6,93,79,71,-100,-100,-100,0,0,100,0.00,40.00,8,3,12,0.00
2013-7-7,97,86,72,-100,-100,-100,0,0,100,0.00,40.00,6,2,8,0.00
2013-7-8,94,81,73,-100,-100,-100,0,0,100,0.00,40.00,7,3,8,0.00
2013-7-9,95,83,70,-100,-100,-100,0,0,100,0.00,40.00,7,3,8,0.00
2013-7-10,91,82,73,-100,-100,-100,0,0,100,0.00,40.00,4,2,6,0.00
2013-7-11,91,80,73,-100,-100,-100,0,0,100,0.00,40.00,8,2,8,0.00
2013-7-12,92,85,76,-100,-100,-100,0,0,100,0.00,40.00,6,-97,11,0.00
2013-7-13,94,79,69,-100,-100,-100,0,0,100,0.00,40.00,7,2,17,0.00
2013-7-14,95,86,69,-100,-100,-100,0,0,100,0.00,40.00,6,2,7,0.00
2013-7-15,84,74,66,-100,-100,-100,0,0,100,0.00,40.00,8,5,11,0.00
2013-7-16,83,71,60,-100,-100,-100,0,0,100,0.00,40.00,8,3,8,0.00
2013-7-17,80,71,64,-100,-100,-100,0,0,100,0.00,40.00,8,5,10,0.00
2013-7-18,70,65,61,-100,-100,-100,0,0,100,0.00,40.00,7,3,7,0.00
2013-7-19,80,71,64,-100,-100,-100,0,0,100,0.00,40.00,7,3,8,0.00
2013-7-20,83,76,66,-100,-100,-100,0,0,100,0.00,40.00,6,2,8,0.00
2013-7-21,88,77,66,-100,-100,-100,0,0,100,0.00,40.00,6,3,9,0.00
2013-7-22,88,76,67,-100,-100,-100,0,0,100,0.00,40.00,6,2,7,0.00
2013-7-23,89,73,65,-100,-100,-100,0,0,100,0.00,40.00,6,2,8,0.00
2013-7-24,87,75,66,-100,-100,-100,0,0,100,0.00,40.00,4,1,7,0.00
2013-7-25,83,71,64,-100,-100,-100,0,0,100,0.00,40.00,4,2,6,0.00
2013-7-26,91,75,68,-100,-100,-100,0,0,100,0.00,40.00,3,1,6,0.00
2013-7-27,81,70,63,-100,-100,-100,0,0,100,0.00,40.00,7,2,9,0.00
2013-7-28,86,73,65,-100,-100,-100,0,0,100,0.00,40.00,8,2,13,0.00
2013-7-29,92,76,66,-100,-100,-100,0,0,100,0.00,40.00,4,2,6,0.00
2013-7-30,93,78,69,-100,-100,-100,0,0,100,0.00,40.00,4,-23,8,0.00
2013-7-31,92,80,69,-100,-100,-100,0,0,100,0.00,40.00,7,2,8,0.00
2013-8-1,90,80,69,-100,-100,-100,0,0,100,0.00,40.00,6,2,7,0.00
2013-8-2,92,81,70,-100,-100,-100,0,0,100,0.00,40.00,5,2,7,0.00
2013-8-3,94,78,69,-100,-100,-100,0,0,100,0.00,40.00,2,1,5,0.00
2013-8-4,94,84,67,-100,-100,-100,0,0,100,0.00,40.00,4,1,10,0.00
2013-8-5,90,79,72,-100,-100,-100,0,0,100,0.00,40.00,7,4,9,0.00
2013-8-6,87,77,66,-100,-100,-100,0,0,100,0.00,40.00,5,3,8,0.00
2013-8-7,87,75,65,-100,-100,-100,0,0,100,0.00,40.00,5,2,9,0.00
2013-8-8,88,75,64,-100,-100,-100,0,0,100,0.00,40.00,6,2,6,0.00
2013-8-9,93,79,64,-100,-100,-100,0,0,100,0.00,40.00,5,2,6,0.00
2013-8-10,83,76,71,-100,-100,-100,0,0,100,0.00,40.00,7,4,11,0.00
2013-8-11,85,70,59,-100,-100,-100,0,0,100,0.00,40.00,5,2,9,0.00
2013-8-12,89,74,66,-100,-100,-100,0,0,100,0.00,40.00,5,2,5,0.00
2013-8-13,87,74,63,-100,-100,-100,0,0,100,0.00,40.00,7,2,7,0.00
2013-8-14,91,75,65,-100,-100,-100,0,0,100,0.00,40.00,6,3,8,0.00
2013-8-15,87,70,65,-100,-100,-100,0,0,100,0.00,40.00,8,-66,9,0.00
2013-8-16,91,72,65,-100,-100,-100,0,0,100,0.00,40.00,4,1,5,0.00
2013-8-17,93,75,65,-100,-100,-100,0,0,100,0.00,40.00,5,1,8,0.00
2013-8-18,93,81,63,-100,-100,-100,0,0,100,0.00,40.00,4,1,7,0.00
2013-8-19,92,68,64,-100,-100,-100,0,0,100,0.00,40.00,6,1,7,0.00
2013-8-20,87,76,66,-100,-100,-100,0,0,100,0.00,40.00,4,2,6,0.00
2013-8-21,90,76,64,-100,-100,-100,0,0,100,0.00,40.00,4,-82,5,0.00
2013-8-22,88,80,62,-100,-100,-100,0,0,100,0.00,40.00,5,-51,7,0.00
2013-8-23,87,76,64,-100,-100,-100,0,0,100,0.00,40.00,6,3,11,0.00
2013-8-24,84,71,63,-100,-100,-100,0,0,100,0.00,40.00,6,3,8,0.00
2013-8-25,87,77,65,-100,-100,-100,0,0,100,0.00,40.00,7,3,8,0.00
2013-8-26,87,75,65,-100,-100,-100,0,0,100,0.00,40.00,6,4,8,0.00
2013-8-27,80,70,65,-100,-100,-100,0,0,100,0.00,40.00,6,3,6,0.00
2013-8-28,76,69,67,-100,-100,-100,0,0,100,0.00,40.00,4,1,6,0.00
2013-8-29,77,70,63,-100,-100,-100,0,0,100,0.00,40.00,6,2,6,0.00
2013-8-30,86,72,62,-100,-100,-100,0,0,100,0.00,40.00,3,1,5,0.00
2013-8-31,91,77,65,-100,-100,-100,0,0,100,0.00,40.00,4,1,7,0.00
2013-9-1,93,78,67,-100,-100,-100,0,0,100,0.00,40.00,5,2,6,0.00
2013-9-2,90,78,67,-100,-100,-100,0,0,100,0.00,40.00,7,4,10,0.00
2013-9-3,90,77,66,-100,-100,-100,0,0,100,0.00,40.00,6,3,8,0.00
2013-9-4,89,78,64,-100,-100,-100,0,0,100,0.00,40.00,6,3,8,0.00
2013-9-5,87,78,67,-100,-100,-100,0,0,100,0.00,40.00,7,3,8,0.00
2013-9-6,89,76,63,-100,-100,-100,0,0,100,0.00,40.00,7,3,7,0.00
2013-9-7,88,78,66,-100,-100,-100,0,0,100,0.00,40.00,5,3,7,0.00
2013-9-8,84,75,69,-100,-100,-100,0,0,100,0.00,40.00,6,3,7,0.00
2013-9-9,83,72,62,-100,-100,-100,0,0,100,0.00,40.00,6,-15,8,0.00
2013-9-10,72,66,62,-100,-100,-100,0,0,100,0.00,40.00,5,3,6,0.00
2013-9-11,74,68,65,-100,-100,-100,0,0,100,0.00,40.00,6,2,7,0.00
2013-9-12,67,64,62,-100,-100,-100,0,0,100,0.00,40.00,7,4,8,0.00
2013-9-13,71,65,62,-100,-100,-100,0,0,100,0.00,40.00,6,3,7,0.00
2013-9-14,80,70,65,-100,-100,-100,0,0,100,0.00,40.00,6,3,7,0.00
2013-9-15,82,68,58,-100,-100,-100,0,0,100,0.00,40.00,6,3,7,0.00
2013-9-16,79,70,63,-100,-100,-100,0,0,100,0.00,40.00,6,4,9,0.00
2013-9-17,80,70,63,-100,-100,-100,0,0,100,0.00,40.00,7,3,7,0.00
2013-9-18,73,64,58,-100,-100,-100,0,0,100,0.00,40.00,2,1,4,0.00
2013-9-19,83,70,58,-100,-100,-100,0,0,100,0.00,40.00,6,2,7,0.00
2013-9-20,80,69,60,-100,-100,-100,0,0,100,0.00,40.00,6,2,7,0.00
2013-9-21,76,65,56,-100,-100,-100,0,0,100,0.00,40.00,5,2,6,0.00
2013-9-22,82,67,54,-100,-100,-100,0,0,100,0.00,40.00,5,2,8,0.00
2013-9-23,80,68,56,-100,-100,-100,0,0,100,0.00,40.00,7,2,9,0.00
2013-9-24,81,65,50,-100,-100,-100,0,0,100,0.00,40.00,4,1,6,0.00
2013-9-25,87,68,50,-100,-100,-100,0,0,100,0.00,40.00,7,2,7,0.00
2013-9-26,84,72,58,-100,-100,-100,0,0,100,0.00,40.00,7,2,9,0.00
2013-9-27,81,72,58,-100,-100,-100,0,0,100,0.00,40.00,8,4,12,0.00
2013-9-28,73,61,51,-100,-100,-100,0,0,100,0.00,40.00,7,3,10,0.00
2013-9-29,80,61,40,-100,-100,-100,0,0,100,0.00,40.00,4,1,6,0.00
2013-9-30,83,65,47,-100,-100,-100,0,0,100,0.00,40.00,5,2,8,0.00
2013-10-1,81,66,55,-100,-100,-100,0,0,100,0.00,40.00,5,2,8,0.00
2013-10-2,83,65,45,-100,-100,-100,0,0,100,0.00,40.00,6,2,8,0.00
2013-10-3,83,66,47,-100,-100,-100,0,0,100,0.00,40.00,8,3,8,0.00
2013-10-4,80,68,54,-100,-100,-100,0,0,100,0.00,40.00,9,3,11,0.00
2013-10-5,70,59,49,-100,-100,-100,0,0,100,0.00,40.00,8,3,11,0.00
2013-10-6,72,54,39,-100,-100,-100,0,0,100,0.00,40.00,4,1,5,0.00
2013-10-7,76,56,36,-100,-100,-100,0,0,100,0.00,40.00,5,2,6,0.00
2013-10-8,82,61,42,-100,-100,-100,0,0,100,0.00,40.00,5,2,7,0.00
2013-10-9,81,66,45,-100,-100,-100,0,0,100,0.00,40.00,5,2,9,0.00
2013-10-10,76,65,53,-100,-100,-100,0,0,100,0.00,40.00,14,5,16,0.00
2013-10-11,73,56,42,-100,-100,-100,0,0,100,0.00,40.00,5,2,10,0.00
2013-10-12,76,58,43,-100,-100,-100,0,0,100,0.00,40.00,5,2,6,0.00
2013-10-13,80,69,48,-100,-100,-100,0,0,100,0.00,40.00,6,3,9,0.00
2013-10-14,73,67,60,-100,-100,-100,0,0,100,0.00,40.00,7,3,9,0.00
2013-10-15,72,61,54,-100,-100,-100,0,0,100,0.00,40.00,7,3,9,0.00
2013-10-16,71,58,46,-100,-100,-100,0,0,100,0.00,40.00,9,2,10,0.00
2013-10-17,73,54,36,-100,-100,-100,0,0,100,0.00,40.00,3,1,6,0.00
2013-10-18,73,58,37,-100,-100,-100,0,0,100,0.00,40.00,5,2,7,0.00
2013-10-19,70,54,34,-100,-100,-100,0,0,100,0.00,40.00,6,2,8,0.00
2013-10-20,75,56,34,-100,-100,-100,0,0,100,0.00,40.00,6,2,8,0.00
2013-10-21,69,55,38,-100,-100,-100,0,0,100,0.00,40.00,6,3,7,0.00
2013-10-22,70,52,34,-100,-100,-100,0,0,100,0.00,40.00,5,1,6,0.00
2013-10-23,74,54,32,-100,-100,-100,0,0,100,0.00,40.00,5,2,6,0.00
2013-10-24,76,63,42,-100,-100,-100,0,0,100,0.00,40.00,6,3,6,0.00
2013-10-25,74,62,50,-100,-100,-100,0,0,100,0.00,40.00,6,2,7,0.00
2013-10-26,73,57,43,-100,-100,-100,0,0,100,0.00,40.00,5,2,7,0.00
2013-10-27,72,54,38,-100,-100,-100,0,0,100,0.00,40.00,5,2,5,0.00
2013-10-28,73,55,39,-100,-100,-100,0,0,100,0.00,40.00,9,3,14,0.00
2013-10-29,68,61,55,-100,-100,-100,0,0,100,0.00,40.00,5,2,6,0.00
2013-10-30,68,60,49,-100,-100,-100,0,0,100,0.00,40.00,13,4,13,0.00
2013-10-31,65,51,29,-100,-100,-100,0,0,100,0.00,40.00,7,2,9,0.00
2013-11-1,66,47,32,-100,-100,-100,0,0,100,0.00,40.00,5,1,7,0.00
2013-11-2,66,50,32,-100,-100,-100,0,0,100,0.00,40.00,6,3,7,0.00
2013-11-3,73,56,40,-100,-100,-100,0,0,100,0.00,40.00,6,2,8,0.00
2013-11-4,69,55,40,-100,-100,-100,0,0,100,0.00,40.00,5,2,7,0.00
2013-11-5,64,56,47,-100,-100,-100,0,0,100,0.00,40.00,8,3,10,0.00
2013-11-6,61,45,35,-100,-100,-100,0,0,100,0.00,40.00,5,1,6,0.00
2013-11-7,65,44,25,-100,-100,-100,0,0,100,0.00,40.00,5,2,5,0.00
2013-11-8,69,50,32,-100,-100,-100,0,0,100,0.00,40.00,4,1,5,0.00
2013-11-9,73,49,32,-100,-100,-100,0,0,100,0.00,40.00,5,1,5,0.00
2013-11-10,73,51,34,-100,-100,-100,0,0,100,0.00,40.00,5,2,5,0.00
2013-11-11,73,51,34,-100,-100,-100,0,0,100,0.00,40.00,5,2,6,0.00
2013-11-12,59,51,40,-100,-100,-100,0,0,100,0.00,40.00,9,5,13,0.00
2013-11-13,56,48,40,-100,-100,-100,0,0,100,0.00,40.00,5,4,6,0.00
2013-11-14,68,51,34,-100,-100,-100,0,0,100,0.00,40.00,5,1,5,0.00
2013-11-15,68,53,33,-100,-100,-100,0,0,100,0.00,40.00,8,4,13,0.00
2013-11-16,70,58,48,-100,-100,-100,0,0,100,0.00,40.00,12,4,14,0.00
2013-11-17,65,54,42,-100,-100,-100,0,0,100,0.00,40.00,7,3,9,0.00
2013-11-18,68,53,42,-100,-100,-100,0,0,100,0.00,40.00,5,-41,5,0.00
2013-11-19,69,51,36,-100,-100,-100,0,0,100,0.00,40.00,3,-56,5,0.00
2013-11-20,68,54,40,-100,-100,-100,0,0,100,0.00,40.00,5,2,6,0.00
2013-11-21,70,57,42,-100,-100,-100,0,0,100,0.00,40.00,7,2,7,0.00
2013-11-22,59,42,33,-100,-100,-100,0,0,100,0.00,40.00,13,7,13,0.00
2013-11-23,37,34,29,-100,-100,-100,0,0,100,0.00,40.00,10,6,12,0.00
2013-11-24,32,28,24,-100,-100,-100,0,0,100,0.00,40.00,10,4,10,0.00
2013-11-25,43,33,29,-100,-100,-100,0,0,100,0.00,40.00,4,1,5,0.00
2013-11-26,48,37,25,-100,-100,-100,0,0,100,0.00,40.00,5,1,6,0.00
2013-11-27,45,34,22,-100,-100,-100,0,0,100,0.00,40.00,6,2,6,0.00
2013-11-28,54,36,19,-100,-100,-100,0,0,100,0.00,40.00,4,1,5,0.00
2013-11-29,59,37,26,-100,-100,-100,0,0,100,0.00,40.00,4,1,4,0.00
2013-11-30,58,41,32,-100,-100,-100,0,0,100,0.00,40.00,3,1,4,0.00
2013-12-1,58,50,43,-100,-100,-100,0,0,100,0.00,40.00,6,1,6,0.00
2013-12-2,65,47,29,-100,-100,-100,0,0,100,0.00,40.00,4,2,6,0.00
2013-12-3,68,51,39,-100,-100,-100,0,0,100,0.00,40.00,7,-20,11,0.00
2013-12-4,65,55,47,-100,-100,-100,0,0,100,0.00,40.00,10,4,14,0.00
2013-12-5,53,47,38,-100,-100,-100,0,0,100,0.00,40.00,8,4,11,0.00
2013-12-6,49,36,26,-100,-100,-100,0,0,100,0.00,40.00,5,1,8,0.00
2013-12-7,41,31,25,-100,-100,-100,0,0,100,0.00,40.00,6,3,8,0.00
2013-12-8,51,39,25,-100,-100,-100,0,0,100,0.00,40.00,6,2,11,0.00
2013-12-9,51,36,21,-100,-100,-100,0,0,100,0.00,40.00,10,-47,11,0.00
2013-12-10,44,30,14,-100,-100,-100,0,0,100,0.00,40.00,4,2,5,0.00
2013-12-11,53,35,21,-100,-100,-100,0,0,100,0.00,40.00,4,2,6,0.00
2013-12-12,42,36,32,-100,-100,-100,0,0,100,0.00,40.00,3,2,5,0.00
2013-12-13,54,40,29,-100,-100,-100,0,0,100,0.00,40.00,10,3,14,0.00
2013-12-14,51,42,29,-100,-100,-100,0,0,100,0.00,40.00,5,2,7,0.00
2013-12-15,55,34,20,-100,-100,-100,0,0,100,0.00,40.00,3,1,7,0.00
2013-12-16,60,41,24,-100,-100,-100,0,0,100,0.00,40.00,3,1,4,0.00
2013-12-17,63,46,29,-100,-100,-100,0,0,100,0.00,40.00,5,1,8,0.00
2013-12-18,59,39,25,-100,-100,-100,0,0,100,0.00,40.00,4,1,8,0.00
2013-12-19,66,44,29,-100,-100,-100,0,0,100,0.00,40.00,7,2,9,0.00
2013-12-20,55,46,36,-100,-100,-100,0,0,100,0.00,40.00,5,2,7,0.00
2013-12-21,44,38,31,-100,-100,-100,0,0,100,0.00,40.00,12,6,15,0.00
2013-12-22,51,38,26,-100,-100,-100,0,0,100,0.00,40.00,6,2,10,0.00
2013-12-23,51,34,20,-100,-100,-100,0,0,100,0.00,40.00,4,1,7,0.00
2013-12-24,56,37,18,-100,-100,-100,0,0,100,0.00,40.00,4,1,4,0.00
2013-12-25,51,37,26,-100,-100,-100,0,0,100,0.00,40.00,5,2,6,0.00
2013-12-26,50,32,19,-100,-100,-100,0,0,100,0.00,40.00,4,1,5,0.00
2013-12-27,51,32,19,-100,-100,-100,0,0,100,0.00,40.00,3,1,6,0.00
2013-12-28,53,35,18,-100,-100,-100,0,0,100,0.00,40.00,5,1,6,0.00
2013-12-29,47,38,26,-100,-100,-100,0,0,100,0.00,40.00,6,2,8,0.00
2013-12-30,54,32,17,-100,-100,-100,0,0,100,0.00,40.00,5,1,5,0.00
2013-12-31,56,34,18,-100,-100,-100,0,0,100,0.00,40.00,5,1,5,0.00
2014-1-1,62,40,19,-100,-100,-100,0,0,100,0.00,40.00,5,1,6,0.00
2014-1-2,53,38,25,-100,-100,-100,0,0,100,0.00,40.00,5,1,6,0.00